sensor_id;sensor_type;location;lat;lon;timestamp;P1;durP1;ratioP1;P2;durP2;ratioP2
9508;SDS011;4792;50.088;8.122;2022-12-11T00:00:57;44.67;;;21.60;;
9508;SDS011;4792;50.088;8.122;2022-12-11T00:03:25;49.10;;;25.07;;
9508;SDS011;4792;50.088;8.122;2022-12-11T00:05:53;36.90;;;19.87;;
9508;SDS011;4792;50.088;8.122;2022-12-11T00:08:21;37.77;;;22.20;;
9508;SDS011;4792;50.088;8.122;2022-12-11T00:10:49;36.13;;;19.10;;
9508;SDS011;4792;50.088;8.122;2022-12-11T00:13:17;36.63;;;20.23;;
9508;SDS011;4792;50.088;8.122;2022-12-11T00:15:47;39.30;;;21.83;;
9508;SDS011;4792;50.088;8.122;2022-12-11T00:18:15;34.17;;;18.57;;
9508;SDS011;4792;50.088;8.122;2022-12-11T00:20:43;31.27;;;18.03;;
9508;SDS011;4792;50.088;8.122;2022-12-11T00:23:11;34.27;;;18.03;;
9508;SDS011;4792;50.088;8.122;2022-12-11T00:25:40;31.47;;;17.17;;
9508;SDS011;4792;50.088;8.122;2022-12-11T00:28:09;36.63;;;19.53;;
9508;SDS011;4792;50.088;8.122;2022-12-11T00:30:38;32.27;;;18.27;;
9508;SDS011;4792;50.088;8.122;2022-12-11T00:33:09;36.43;;;17.63;;
9508;SDS011;4792;50.088;8.122;2022-12-11T00:35:38;36.77;;;20.00;;
9508;SDS011;4792;50.088;8.122;2022-12-11T00:38:07;35.03;;;18.67;;
9508;SDS011;4792;50.088;8.122;2022-12-11T00:40:35;45.33;;;23.37;;
9508;SDS011;4792;50.088;8.122;2022-12-11T00:43:04;43.40;;;22.83;;
9508;SDS011;4792;50.088;8.122;2022-12-11T00:45:34;47.23;;;27.37;;
9508;SDS011;4792;50.088;8.122;2022-12-11T00:48:05;42.17;;;22.23;;
9508;SDS011;4792;50.088;8.122;2022-12-11T00:50:35;63.93;;;34.47;;
9508;SDS011;4792;50.088;8.122;2022-12-11T00:53:04;46.80;;;29.03;;
9508;SDS011;4792;50.088;8.122;2022-12-11T00:55:35;32.80;;;19.03;;
9508;SDS011;4792;50.088;8.122;2022-12-11T00:58:04;29.80;;;18.20;;
9508;SDS011;4792;50.088;8.122;2022-12-11T01:00:33;32.87;;;18.37;;
9508;SDS011;4792;50.088;8.122;2022-12-11T01:03:01;54.47;;;31.23;;
9508;SDS011;4792;50.088;8.122;2022-12-11T01:05:30;34.47;;;18.80;;
9508;SDS011;4792;50.088;8.122;2022-12-11T01:07:59;34.23;;;17.33;;
9508;SDS011;4792;50.088;8.122;2022-12-11T01:10:28;39.10;;;21.77;;
9508;SDS011;4792;50.088;8.122;2022-12-11T01:12:57;42.73;;;22.27;;
9508;SDS011;4792;50.088;8.122;2022-12-11T01:15:27;52.57;;;26.57;;
9508;SDS011;4792;50.088;8.122;2022-12-11T01:17:57;39.77;;;20.13;;
9508;SDS011;4792;50.088;8.122;2022-12-11T01:20:25;50.57;;;25.87;;
9508;SDS011;4792;50.088;8.122;2022-12-11T01:22:55;91.60;;;44.47;;
9508;SDS011;4792;50.088;8.122;2022-12-11T01:25:27;65.70;;;32.77;;
9508;SDS011;4792;50.088;8.122;2022-12-11T01:27:55;41.03;;;22.17;;
9508;SDS011;4792;50.088;8.122;2022-12-11T01:30:24;30.93;;;16.37;;
9508;SDS011;4792;50.088;8.122;2022-12-11T01:32:52;30.60;;;17.03;;
9508;SDS011;4792;50.088;8.122;2022-12-11T01:35:20;55.40;;;26.53;;
9508;SDS011;4792;50.088;8.122;2022-12-11T01:37:49;37.63;;;19.13;;
9508;SDS011;4792;50.088;8.122;2022-12-11T01:40:17;35.50;;;18.80;;
9508;SDS011;4792;50.088;8.122;2022-12-11T01:42:48;52.63;;;28.03;;
9508;SDS011;4792;50.088;8.122;2022-12-11T01:45:33;34.57;;;19.13;;
9508;SDS011;4792;50.088;8.122;2022-12-11T01:48:07;31.63;;;16.57;;
9508;SDS011;4792;50.088;8.122;2022-12-11T01:50:38;35.07;;;18.50;;
9508;SDS011;4792;50.088;8.122;2022-12-11T01:53:11;35.60;;;18.27;;
9508;SDS011;4792;50.088;8.122;2022-12-11T01:55:42;34.17;;;18.70;;
9508;SDS011;4792;50.088;8.122;2022-12-11T01:58:14;38.87;;;20.17;;
9508;SDS011;4792;50.088;8.122;2022-12-11T02:00:44;35.00;;;19.57;;
9508;SDS011;4792;50.088;8.122;2022-12-11T02:03:12;48.33;;;23.40;;
9508;SDS011;4792;50.088;8.122;2022-12-11T02:05:41;37.33;;;19.60;;
9508;SDS011;4792;50.088;8.122;2022-12-11T02:08:09;36.90;;;18.50;;
9508;SDS011;4792;50.088;8.122;2022-12-11T02:10:42;38.00;;;18.73;;
9508;SDS011;4792;50.088;8.122;2022-12-11T02:13:18;30.63;;;16.57;;
9508;SDS011;4792;50.088;8.122;2022-12-11T02:15:54;36.50;;;18.93;;
9508;SDS011;4792;50.088;8.122;2022-12-11T02:18:28;36.37;;;19.03;;
9508;SDS011;4792;50.088;8.122;2022-12-11T02:21:02;31.70;;;17.97;;
9508;SDS011;4792;50.088;8.122;2022-12-11T02:23:49;36.27;;;19.80;;
9508;SDS011;4792;50.088;8.122;2022-12-11T02:26:31;51.60;;;26.00;;
9508;SDS011;4792;50.088;8.122;2022-12-11T02:29:14;80.70;;;33.07;;
9508;SDS011;4792;50.088;8.122;2022-12-11T02:31:48;53.13;;;25.90;;
9508;SDS011;4792;50.088;8.122;2022-12-11T02:34:21;55.53;;;24.40;;
9508;SDS011;4792;50.088;8.122;2022-12-11T02:36:56;55.23;;;27.50;;
9508;SDS011;4792;50.088;8.122;2022-12-11T02:39:28;53.50;;;24.60;;
9508;SDS011;4792;50.088;8.122;2022-12-11T02:41:59;163.40;;;53.17;;
9508;SDS011;4792;50.088;8.122;2022-12-11T02:44:31;260.47;;;87.93;;
9508;SDS011;4792;50.088;8.122;2022-12-11T02:47:01;63.60;;;29.53;;
9508;SDS011;4792;50.088;8.122;2022-12-11T02:49:33;156.53;;;52.73;;
9508;SDS011;4792;50.088;8.122;2022-12-11T02:52:02;39.53;;;20.70;;
9508;SDS011;4792;50.088;8.122;2022-12-11T02:54:33;48.37;;;21.23;;
9508;SDS011;4792;50.088;8.122;2022-12-11T02:57:05;40.30;;;19.70;;
9508;SDS011;4792;50.088;8.122;2022-12-11T02:59:38;55.23;;;23.20;;
9508;SDS011;4792;50.088;8.122;2022-12-11T03:02:09;45.17;;;22.87;;
9508;SDS011;4792;50.088;8.122;2022-12-11T03:04:38;38.70;;;20.57;;
9508;SDS011;4792;50.088;8.122;2022-12-11T03:07:09;36.27;;;17.57;;
9508;SDS011;4792;50.088;8.122;2022-12-11T03:09:40;40.20;;;20.13;;
9508;SDS011;4792;50.088;8.122;2022-12-11T03:12:10;40.23;;;21.13;;
9508;SDS011;4792;50.088;8.122;2022-12-11T03:14:41;39.90;;;22.20;;
9508;SDS011;4792;50.088;8.122;2022-12-11T03:17:11;38.47;;;20.77;;
9508;SDS011;4792;50.088;8.122;2022-12-11T03:19:47;39.63;;;22.10;;
9508;SDS011;4792;50.088;8.122;2022-12-11T03:22:22;41.07;;;22.17;;
9508;SDS011;4792;50.088;8.122;2022-12-11T03:24:59;44.73;;;23.60;;
9508;SDS011;4792;50.088;8.122;2022-12-11T03:27:35;48.03;;;23.97;;
9508;SDS011;4792;50.088;8.122;2022-12-11T03:30:11;41.23;;;23.13;;
9508;SDS011;4792;50.088;8.122;2022-12-11T03:32:43;41.00;;;21.83;;
9508;SDS011;4792;50.088;8.122;2022-12-11T03:35:17;39.30;;;21.57;;
9508;SDS011;4792;50.088;8.122;2022-12-11T03:37:48;44.50;;;23.63;;
9508;SDS011;4792;50.088;8.122;2022-12-11T03:40:19;46.53;;;23.80;;
9508;SDS011;4792;50.088;8.122;2022-12-11T03:42:49;44.87;;;23.50;;
9508;SDS011;4792;50.088;8.122;2022-12-11T03:45:20;46.03;;;23.80;;
9508;SDS011;4792;50.088;8.122;2022-12-11T03:47:51;46.50;;;23.47;;
9508;SDS011;4792;50.088;8.122;2022-12-11T03:50:22;43.63;;;23.33;;
9508;SDS011;4792;50.088;8.122;2022-12-11T03:52:52;37.50;;;21.50;;
9508;SDS011;4792;50.088;8.122;2022-12-11T03:55:21;44.57;;;23.93;;
9508;SDS011;4792;50.088;8.122;2022-12-11T03:57:49;45.40;;;23.00;;
9508;SDS011;4792;50.088;8.122;2022-12-11T04:00:18;43.37;;;23.50;;
9508;SDS011;4792;50.088;8.122;2022-12-11T04:02:49;42.57;;;22.57;;
9508;SDS011;4792;50.088;8.122;2022-12-11T04:05:38;44.07;;;23.40;;
9508;SDS011;4792;50.088;8.122;2022-12-11T04:08:07;43.27;;;23.50;;
9508;SDS011;4792;50.088;8.122;2022-12-11T04:10:35;42.53;;;22.63;;
9508;SDS011;4792;50.088;8.122;2022-12-11T04:13:03;46.70;;;22.97;;
9508;SDS011;4792;50.088;8.122;2022-12-11T04:15:33;46.83;;;24.17;;
9508;SDS011;4792;50.088;8.122;2022-12-11T04:18:00;44.13;;;23.37;;
9508;SDS011;4792;50.088;8.122;2022-12-11T04:20:47;41.27;;;22.93;;
9508;SDS011;4792;50.088;8.122;2022-12-11T04:23:34;42.57;;;23.60;;
9508;SDS011;4792;50.088;8.122;2022-12-11T04:26:20;40.60;;;22.27;;
9508;SDS011;4792;50.088;8.122;2022-12-11T04:28:48;42.83;;;23.00;;
9508;SDS011;4792;50.088;8.122;2022-12-11T04:31:19;41.00;;;22.97;;
9508;SDS011;4792;50.088;8.122;2022-12-11T04:33:48;39.03;;;21.43;;
9508;SDS011;4792;50.088;8.122;2022-12-11T04:36:16;39.47;;;21.00;;
9508;SDS011;4792;50.088;8.122;2022-12-11T04:38:44;39.60;;;21.83;;
9508;SDS011;4792;50.088;8.122;2022-12-11T04:41:13;38.40;;;21.70;;
9508;SDS011;4792;50.088;8.122;2022-12-11T04:43:43;40.83;;;21.57;;
9508;SDS011;4792;50.088;8.122;2022-12-11T04:46:12;44.40;;;23.33;;
9508;SDS011;4792;50.088;8.122;2022-12-11T04:48:43;45.03;;;23.20;;
9508;SDS011;4792;50.088;8.122;2022-12-11T04:51:12;42.00;;;22.10;;
9508;SDS011;4792;50.088;8.122;2022-12-11T04:53:40;41.53;;;23.00;;
9508;SDS011;4792;50.088;8.122;2022-12-11T04:56:10;48.23;;;23.17;;
9508;SDS011;4792;50.088;8.122;2022-12-11T04:58:39;45.40;;;23.80;;
9508;SDS011;4792;50.088;8.122;2022-12-11T05:01:08;39.00;;;22.53;;
9508;SDS011;4792;50.088;8.122;2022-12-11T05:03:37;42.10;;;23.97;;
9508;SDS011;4792;50.088;8.122;2022-12-11T05:06:08;43.40;;;22.90;;
9508;SDS011;4792;50.088;8.122;2022-12-11T05:08:37;43.60;;;22.80;;
9508;SDS011;4792;50.088;8.122;2022-12-11T05:11:08;41.73;;;22.73;;
9508;SDS011;4792;50.088;8.122;2022-12-11T05:13:37;45.30;;;22.73;;
9508;SDS011;4792;50.088;8.122;2022-12-11T05:16:06;39.30;;;21.83;;
9508;SDS011;4792;50.088;8.122;2022-12-11T05:18:35;43.03;;;22.97;;
9508;SDS011;4792;50.088;8.122;2022-12-11T05:21:05;42.40;;;23.80;;
9508;SDS011;4792;50.088;8.122;2022-12-11T05:23:36;43.30;;;22.87;;
9508;SDS011;4792;50.088;8.122;2022-12-11T05:26:05;46.13;;;22.47;;
9508;SDS011;4792;50.088;8.122;2022-12-11T05:28:35;45.50;;;23.90;;
9508;SDS011;4792;50.088;8.122;2022-12-11T05:31:05;42.90;;;24.07;;
9508;SDS011;4792;50.088;8.122;2022-12-11T05:33:34;48.30;;;22.97;;
9508;SDS011;4792;50.088;8.122;2022-12-11T05:36:03;45.47;;;25.23;;
9508;SDS011;4792;50.088;8.122;2022-12-11T05:38:34;41.53;;;22.97;;
9508;SDS011;4792;50.088;8.122;2022-12-11T05:41:04;40.90;;;22.40;;
9508;SDS011;4792;50.088;8.122;2022-12-11T05:43:33;38.83;;;22.60;;
9508;SDS011;4792;50.088;8.122;2022-12-11T05:46:05;42.10;;;22.73;;
9508;SDS011;4792;50.088;8.122;2022-12-11T05:48:34;45.90;;;24.27;;
9508;SDS011;4792;50.088;8.122;2022-12-11T05:51:04;47.17;;;22.70;;
9508;SDS011;4792;50.088;8.122;2022-12-11T05:53:35;40.63;;;22.07;;
9508;SDS011;4792;50.088;8.122;2022-12-11T05:56:05;40.97;;;23.03;;
9508;SDS011;4792;50.088;8.122;2022-12-11T05:58:34;40.27;;;22.43;;
9508;SDS011;4792;50.088;8.122;2022-12-11T06:01:05;46.93;;;24.60;;
9508;SDS011;4792;50.088;8.122;2022-12-11T06:03:35;45.90;;;22.90;;
9508;SDS011;4792;50.088;8.122;2022-12-11T06:06:03;42.40;;;22.60;;
9508;SDS011;4792;50.088;8.122;2022-12-11T06:08:32;48.83;;;26.33;;
9508;SDS011;4792;50.088;8.122;2022-12-11T06:11:02;47.50;;;25.50;;
9508;SDS011;4792;50.088;8.122;2022-12-11T06:13:31;45.47;;;23.73;;
9508;SDS011;4792;50.088;8.122;2022-12-11T06:16:00;44.23;;;24.10;;
9508;SDS011;4792;50.088;8.122;2022-12-11T06:18:29;42.37;;;22.03;;
9508;SDS011;4792;50.088;8.122;2022-12-11T06:20:57;41.67;;;22.97;;
9508;SDS011;4792;50.088;8.122;2022-12-11T06:23:25;44.83;;;23.57;;
9508;SDS011;4792;50.088;8.122;2022-12-11T06:25:55;42.80;;;23.97;;
9508;SDS011;4792;50.088;8.122;2022-12-11T06:28:23;46.60;;;24.37;;
9508;SDS011;4792;50.088;8.122;2022-12-11T06:30:51;54.83;;;26.10;;
9508;SDS011;4792;50.088;8.122;2022-12-11T06:33:20;49.20;;;23.93;;
9508;SDS011;4792;50.088;8.122;2022-12-11T06:35:48;52.00;;;25.00;;
9508;SDS011;4792;50.088;8.122;2022-12-11T06:38:16;45.23;;;24.50;;
9508;SDS011;4792;50.088;8.122;2022-12-11T06:40:44;45.27;;;24.03;;
9508;SDS011;4792;50.088;8.122;2022-12-11T06:43:14;44.63;;;23.33;;
9508;SDS011;4792;50.088;8.122;2022-12-11T06:45:42;48.67;;;24.63;;
9508;SDS011;4792;50.088;8.122;2022-12-11T06:48:10;47.97;;;24.50;;
9508;SDS011;4792;50.088;8.122;2022-12-11T06:50:38;50.13;;;25.13;;
9508;SDS011;4792;50.088;8.122;2022-12-11T06:53:06;51.43;;;24.87;;
9508;SDS011;4792;50.088;8.122;2022-12-11T06:55:35;47.90;;;23.93;;
9508;SDS011;4792;50.088;8.122;2022-12-11T06:58:04;49.03;;;24.90;;
9508;SDS011;4792;50.088;8.122;2022-12-11T07:00:34;49.63;;;24.93;;
9508;SDS011;4792;50.088;8.122;2022-12-11T07:03:03;54.77;;;25.50;;
9508;SDS011;4792;50.088;8.122;2022-12-11T07:05:32;54.53;;;25.40;;
9508;SDS011;4792;50.088;8.122;2022-12-11T07:08:00;52.63;;;26.80;;
9508;SDS011;4792;50.088;8.122;2022-12-11T07:10:28;55.30;;;27.07;;
9508;SDS011;4792;50.088;8.122;2022-12-11T07:12:57;54.13;;;26.60;;
9508;SDS011;4792;50.088;8.122;2022-12-11T07:15:25;62.73;;;27.37;;
9508;SDS011;4792;50.088;8.122;2022-12-11T07:17:54;53.33;;;25.77;;
9508;SDS011;4792;50.088;8.122;2022-12-11T07:20:22;51.27;;;24.17;;
9508;SDS011;4792;50.088;8.122;2022-12-11T07:22:50;48.57;;;23.00;;
9508;SDS011;4792;50.088;8.122;2022-12-11T07:25:20;48.97;;;23.63;;
9508;SDS011;4792;50.088;8.122;2022-12-11T07:27:48;51.03;;;23.50;;
9508;SDS011;4792;50.088;8.122;2022-12-11T07:30:16;43.93;;;22.83;;
9508;SDS011;4792;50.088;8.122;2022-12-11T07:32:45;43.63;;;20.83;;
9508;SDS011;4792;50.088;8.122;2022-12-11T07:35:14;42.77;;;21.17;;
9508;SDS011;4792;50.088;8.122;2022-12-11T07:37:42;39.67;;;18.37;;
9508;SDS011;4792;50.088;8.122;2022-12-11T07:40:11;41.40;;;19.53;;
9508;SDS011;4792;50.088;8.122;2022-12-11T07:42:40;52.77;;;23.83;;
9508;SDS011;4792;50.088;8.122;2022-12-11T07:45:11;49.00;;;24.17;;
9508;SDS011;4792;50.088;8.122;2022-12-11T07:47:39;47.07;;;23.33;;
9508;SDS011;4792;50.088;8.122;2022-12-11T07:50:08;55.00;;;26.30;;
9508;SDS011;4792;50.088;8.122;2022-12-11T07:52:37;48.53;;;23.87;;
9508;SDS011;4792;50.088;8.122;2022-12-11T07:55:06;44.50;;;23.30;;
9508;SDS011;4792;50.088;8.122;2022-12-11T07:57:35;45.67;;;24.23;;
9508;SDS011;4792;50.088;8.122;2022-12-11T08:00:03;43.37;;;23.53;;
9508;SDS011;4792;50.088;8.122;2022-12-11T08:02:32;51.93;;;25.23;;
9508;SDS011;4792;50.088;8.122;2022-12-11T08:05:02;49.87;;;24.87;;
9508;SDS011;4792;50.088;8.122;2022-12-11T08:07:32;55.53;;;26.57;;
9508;SDS011;4792;50.088;8.122;2022-12-11T08:10:02;50.20;;;25.33;;
9508;SDS011;4792;50.088;8.122;2022-12-11T08:12:31;49.80;;;24.73;;
9508;SDS011;4792;50.088;8.122;2022-12-11T08:14:59;55.17;;;27.63;;
9508;SDS011;4792;50.088;8.122;2022-12-11T08:17:27;48.80;;;25.13;;
9508;SDS011;4792;50.088;8.122;2022-12-11T08:20:03;47.00;;;23.87;;
9508;SDS011;4792;50.088;8.122;2022-12-11T08:22:32;46.77;;;23.67;;
9508;SDS011;4792;50.088;8.122;2022-12-11T08:25:00;48.70;;;23.77;;
9508;SDS011;4792;50.088;8.122;2022-12-11T08:27:30;51.63;;;24.87;;
9508;SDS011;4792;50.088;8.122;2022-12-11T08:29:58;48.80;;;24.87;;
9508;SDS011;4792;50.088;8.122;2022-12-11T08:32:27;46.73;;;23.90;;
9508;SDS011;4792;50.088;8.122;2022-12-11T08:34:55;45.60;;;22.90;;
9508;SDS011;4792;50.088;8.122;2022-12-11T08:37:23;47.37;;;22.60;;
9508;SDS011;4792;50.088;8.122;2022-12-11T08:39:51;41.67;;;22.90;;
9508;SDS011;4792;50.088;8.122;2022-12-11T08:42:21;49.23;;;24.27;;
9508;SDS011;4792;50.088;8.122;2022-12-11T08:44:49;45.33;;;23.33;;
9508;SDS011;4792;50.088;8.122;2022-12-11T08:47:17;47.03;;;23.33;;
9508;SDS011;4792;50.088;8.122;2022-12-11T08:49:45;45.87;;;25.00;;
9508;SDS011;4792;50.088;8.122;2022-12-11T08:52:13;45.50;;;23.17;;
9508;SDS011;4792;50.088;8.122;2022-12-11T08:54:41;44.10;;;23.57;;
9508;SDS011;4792;50.088;8.122;2022-12-11T08:57:09;52.43;;;24.97;;
9508;SDS011;4792;50.088;8.122;2022-12-11T08:59:39;46.13;;;23.90;;
9508;SDS011;4792;50.088;8.122;2022-12-11T09:02:08;43.73;;;24.13;;
9508;SDS011;4792;50.088;8.122;2022-12-11T09:04:37;50.07;;;25.50;;
9508;SDS011;4792;50.088;8.122;2022-12-11T09:07:06;51.03;;;24.47;;
9508;SDS011;4792;50.088;8.122;2022-12-11T09:09:34;44.57;;;22.43;;
9508;SDS011;4792;50.088;8.122;2022-12-11T09:12:02;48.97;;;24.77;;
9508;SDS011;4792;50.088;8.122;2022-12-11T09:14:31;50.80;;;24.93;;
9508;SDS011;4792;50.088;8.122;2022-12-11T09:17:00;48.87;;;24.80;;
9508;SDS011;4792;50.088;8.122;2022-12-11T09:19:30;51.10;;;25.37;;
9508;SDS011;4792;50.088;8.122;2022-12-11T09:21:58;48.93;;;24.00;;
9508;SDS011;4792;50.088;8.122;2022-12-11T09:24:26;46.57;;;23.70;;
9508;SDS011;4792;50.088;8.122;2022-12-11T09:26:55;48.30;;;24.63;;
9508;SDS011;4792;50.088;8.122;2022-12-11T09:29:23;53.87;;;25.73;;
9508;SDS011;4792;50.088;8.122;2022-12-11T09:31:51;47.53;;;24.47;;
9508;SDS011;4792;50.088;8.122;2022-12-11T09:34:20;55.10;;;25.67;;
9508;SDS011;4792;50.088;8.122;2022-12-11T09:36:54;52.03;;;25.37;;
9508;SDS011;4792;50.088;8.122;2022-12-11T09:39:22;72.47;;;36.30;;
9508;SDS011;4792;50.088;8.122;2022-12-11T09:41:52;57.50;;;25.63;;
9508;SDS011;4792;50.088;8.122;2022-12-11T09:44:32;57.33;;;28.60;;
9508;SDS011;4792;50.088;8.122;2022-12-11T09:47:08;49.93;;;25.10;;
9508;SDS011;4792;50.088;8.122;2022-12-11T09:49:53;48.33;;;23.43;;
9508;SDS011;4792;50.088;8.122;2022-12-11T09:52:31;45.20;;;24.70;;
9508;SDS011;4792;50.088;8.122;2022-12-11T09:55:05;53.17;;;26.70;;
9508;SDS011;4792;50.088;8.122;2022-12-11T09:57:42;49.17;;;25.90;;
9508;SDS011;4792;50.088;8.122;2022-12-11T10:00:19;47.67;;;24.67;;
9508;SDS011;4792;50.088;8.122;2022-12-11T10:03:02;48.23;;;25.17;;
9508;SDS011;4792;50.088;8.122;2022-12-11T10:05:54;48.57;;;24.77;;
9508;SDS011;4792;50.088;8.122;2022-12-11T10:08:31;46.40;;;23.73;;
9508;SDS011;4792;50.088;8.122;2022-12-11T10:11:20;43.53;;;22.80;;
9508;SDS011;4792;50.088;8.122;2022-12-11T10:14:07;50.57;;;26.33;;
9508;SDS011;4792;50.088;8.122;2022-12-11T10:16:44;51.93;;;26.37;;
9508;SDS011;4792;50.088;8.122;2022-12-11T10:19:16;49.47;;;25.10;;
9508;SDS011;4792;50.088;8.122;2022-12-11T10:21:48;57.43;;;26.50;;
9508;SDS011;4792;50.088;8.122;2022-12-11T10:24:19;46.03;;;24.13;;
9508;SDS011;4792;50.088;8.122;2022-12-11T10:27:16;46.60;;;24.20;;
9508;SDS011;4792;50.088;8.122;2022-12-11T10:29:46;50.13;;;24.83;;
9508;SDS011;4792;50.088;8.122;2022-12-11T10:32:20;53.33;;;26.73;;
9508;SDS011;4792;50.088;8.122;2022-12-11T10:34:52;46.00;;;23.73;;
9508;SDS011;4792;50.088;8.122;2022-12-11T10:37:26;47.70;;;25.20;;
9508;SDS011;4792;50.088;8.122;2022-12-11T10:39:55;44.20;;;24.23;;
9508;SDS011;4792;50.088;8.122;2022-12-11T10:42:23;49.37;;;26.33;;
9508;SDS011;4792;50.088;8.122;2022-12-11T10:44:54;42.30;;;23.57;;
9508;SDS011;4792;50.088;8.122;2022-12-11T10:47:24;45.57;;;25.03;;
9508;SDS011;4792;50.088;8.122;2022-12-11T10:49:53;46.40;;;24.80;;
9508;SDS011;4792;50.088;8.122;2022-12-11T10:52:24;49.20;;;24.93;;
9508;SDS011;4792;50.088;8.122;2022-12-11T10:54:58;45.30;;;23.37;;
9508;SDS011;4792;50.088;8.122;2022-12-11T10:57:29;47.30;;;23.30;;
9508;SDS011;4792;50.088;8.122;2022-12-11T11:00:00;42.43;;;22.63;;
9508;SDS011;4792;50.088;8.122;2022-12-11T11:02:30;42.47;;;21.13;;
9508;SDS011;4792;50.088;8.122;2022-12-11T11:05:09;42.10;;;21.47;;
9508;SDS011;4792;50.088;8.122;2022-12-11T11:07:40;38.17;;;20.17;;
9508;SDS011;4792;50.088;8.122;2022-12-11T11:10:14;40.80;;;21.00;;
9508;SDS011;4792;50.088;8.122;2022-12-11T11:12:44;45.37;;;22.47;;
9508;SDS011;4792;50.088;8.122;2022-12-11T11:15:14;39.87;;;22.33;;
9508;SDS011;4792;50.088;8.122;2022-12-11T11:17:45;41.77;;;22.33;;
9508;SDS011;4792;50.088;8.122;2022-12-11T11:20:21;41.20;;;22.03;;
9508;SDS011;4792;50.088;8.122;2022-12-11T11:22:52;39.00;;;20.50;;
9508;SDS011;4792;50.088;8.122;2022-12-11T11:25:24;38.57;;;20.33;;
9508;SDS011;4792;50.088;8.122;2022-12-11T11:27:54;42.93;;;21.03;;
9508;SDS011;4792;50.088;8.122;2022-12-11T11:30:24;42.07;;;21.43;;
9508;SDS011;4792;50.088;8.122;2022-12-11T11:32:55;43.53;;;21.83;;
9508;SDS011;4792;50.088;8.122;2022-12-11T11:35:26;44.90;;;23.60;;
9508;SDS011;4792;50.088;8.122;2022-12-11T11:38:00;43.17;;;22.50;;
9508;SDS011;4792;50.088;8.122;2022-12-11T11:40:33;47.93;;;24.83;;
9508;SDS011;4792;50.088;8.122;2022-12-11T11:43:08;47.77;;;23.87;;
9508;SDS011;4792;50.088;8.122;2022-12-11T11:45:43;43.93;;;23.17;;
9508;SDS011;4792;50.088;8.122;2022-12-11T11:48:24;46.93;;;25.73;;
9508;SDS011;4792;50.088;8.122;2022-12-11T11:50:57;49.17;;;24.90;;
9508;SDS011;4792;50.088;8.122;2022-12-11T11:53:29;46.07;;;23.77;;
9508;SDS011;4792;50.088;8.122;2022-12-11T11:56:04;49.30;;;23.10;;
9508;SDS011;4792;50.088;8.122;2022-12-11T11:58:43;52.20;;;24.07;;
9508;SDS011;4792;50.088;8.122;2022-12-11T12:01:16;54.80;;;26.60;;
9508;SDS011;4792;50.088;8.122;2022-12-11T12:03:46;49.60;;;24.87;;
9508;SDS011;4792;50.088;8.122;2022-12-11T12:06:18;52.23;;;27.63;;
9508;SDS011;4792;50.088;8.122;2022-12-11T12:08:56;50.47;;;26.30;;
9508;SDS011;4792;50.088;8.122;2022-12-11T12:11:31;53.23;;;26.00;;
9508;SDS011;4792;50.088;8.122;2022-12-11T12:14:05;49.40;;;25.40;;
9508;SDS011;4792;50.088;8.122;2022-12-11T12:17:03;55.90;;;26.90;;
9508;SDS011;4792;50.088;8.122;2022-12-11T12:19:44;53.00;;;26.70;;
9508;SDS011;4792;50.088;8.122;2022-12-11T12:22:19;57.77;;;27.43;;
9508;SDS011;4792;50.088;8.122;2022-12-11T12:25:04;61.63;;;29.37;;
9508;SDS011;4792;50.088;8.122;2022-12-11T12:27:43;56.13;;;27.20;;
9508;SDS011;4792;50.088;8.122;2022-12-11T12:30:18;58.23;;;27.70;;
9508;SDS011;4792;50.088;8.122;2022-12-11T12:32:53;55.27;;;27.17;;
9508;SDS011;4792;50.088;8.122;2022-12-11T12:35:33;56.07;;;27.40;;
9508;SDS011;4792;50.088;8.122;2022-12-11T12:38:07;57.27;;;28.67;;
9508;SDS011;4792;50.088;8.122;2022-12-11T12:40:46;58.40;;;27.93;;
9508;SDS011;4792;50.088;8.122;2022-12-11T12:43:33;55.90;;;27.43;;
9508;SDS011;4792;50.088;8.122;2022-12-11T12:46:16;55.43;;;27.70;;
9508;SDS011;4792;50.088;8.122;2022-12-11T12:48:56;49.53;;;26.00;;
9508;SDS011;4792;50.088;8.122;2022-12-11T12:51:25;58.37;;;28.43;;
9508;SDS011;4792;50.088;8.122;2022-12-11T12:53:55;56.07;;;26.80;;
9508;SDS011;4792;50.088;8.122;2022-12-11T12:56:28;69.00;;;30.27;;
9508;SDS011;4792;50.088;8.122;2022-12-11T12:58:58;64.90;;;32.83;;
9508;SDS011;4792;50.088;8.122;2022-12-11T13:01:26;73.27;;;34.00;;
9508;SDS011;4792;50.088;8.122;2022-12-11T13:03:57;64.93;;;33.23;;
9508;SDS011;4792;50.088;8.122;2022-12-11T13:06:28;82.67;;;33.90;;
9508;SDS011;4792;50.088;8.122;2022-12-11T13:09:08;75.33;;;34.30;;
9508;SDS011;4792;50.088;8.122;2022-12-11T13:11:41;107.13;;;34.20;;
9508;SDS011;4792;50.088;8.122;2022-12-11T13:14:21;67.63;;;33.77;;
9508;SDS011;4792;50.088;8.122;2022-12-11T13:17:03;72.97;;;34.20;;
9508;SDS011;4792;50.088;8.122;2022-12-11T13:19:34;69.73;;;34.10;;
9508;SDS011;4792;50.088;8.122;2022-12-11T13:22:19;69.50;;;32.33;;
9508;SDS011;4792;50.088;8.122;2022-12-11T13:24:55;73.57;;;36.97;;
9508;SDS011;4792;50.088;8.122;2022-12-11T13:27:36;71.73;;;34.63;;
9508;SDS011;4792;50.088;8.122;2022-12-11T13:30:06;70.57;;;33.57;;
9508;SDS011;4792;50.088;8.122;2022-12-11T13:32:50;81.63;;;34.87;;
9508;SDS011;4792;50.088;8.122;2022-12-11T13:35:27;75.93;;;36.00;;
9508;SDS011;4792;50.088;8.122;2022-12-11T13:37:57;68.97;;;33.97;;
9508;SDS011;4792;50.088;8.122;2022-12-11T13:40:32;71.33;;;36.87;;
9508;SDS011;4792;50.088;8.122;2022-12-11T13:43:14;72.40;;;35.67;;
9508;SDS011;4792;50.088;8.122;2022-12-11T13:45:45;69.27;;;33.93;;
9508;SDS011;4792;50.088;8.122;2022-12-11T13:48:20;82.67;;;35.43;;
9508;SDS011;4792;50.088;8.122;2022-12-11T13:50:51;80.03;;;33.20;;
9508;SDS011;4792;50.088;8.122;2022-12-11T13:53:21;69.67;;;33.63;;
9508;SDS011;4792;50.088;8.122;2022-12-11T13:55:56;72.07;;;32.70;;
9508;SDS011;4792;50.088;8.122;2022-12-11T13:58:27;71.83;;;34.77;;
9508;SDS011;4792;50.088;8.122;2022-12-11T14:01:03;67.33;;;32.93;;
9508;SDS011;4792;50.088;8.122;2022-12-11T14:03:37;69.50;;;33.57;;
9508;SDS011;4792;50.088;8.122;2022-12-11T14:06:07;75.97;;;35.27;;
9508;SDS011;4792;50.088;8.122;2022-12-11T14:08:44;72.10;;;35.50;;
9508;SDS011;4792;50.088;8.122;2022-12-11T14:11:17;68.70;;;35.03;;
9508;SDS011;4792;50.088;8.122;2022-12-11T14:13:51;77.47;;;35.37;;
9508;SDS011;4792;50.088;8.122;2022-12-11T14:16:20;72.43;;;34.67;;
9508;SDS011;4792;50.088;8.122;2022-12-11T14:18:51;79.47;;;33.97;;
9508;SDS011;4792;50.088;8.122;2022-12-11T14:21:21;65.33;;;31.73;;
9508;SDS011;4792;50.088;8.122;2022-12-11T14:23:51;66.07;;;31.70;;
9508;SDS011;4792;50.088;8.122;2022-12-11T14:26:22;72.77;;;33.43;;
9508;SDS011;4792;50.088;8.122;2022-12-11T14:28:53;68.57;;;33.37;;
9508;SDS011;4792;50.088;8.122;2022-12-11T14:31:24;67.17;;;31.90;;
9508;SDS011;4792;50.088;8.122;2022-12-11T14:33:58;67.63;;;31.73;;
9508;SDS011;4792;50.088;8.122;2022-12-11T14:36:30;74.50;;;34.07;;
9508;SDS011;4792;50.088;8.122;2022-12-11T14:39:01;67.33;;;30.33;;
9508;SDS011;4792;50.088;8.122;2022-12-11T14:41:34;69.97;;;33.97;;
9508;SDS011;4792;50.088;8.122;2022-12-11T14:44:12;74.83;;;35.40;;
9508;SDS011;4792;50.088;8.122;2022-12-11T14:46:43;71.60;;;32.23;;
9508;SDS011;4792;50.088;8.122;2022-12-11T14:49:15;64.07;;;32.63;;
9508;SDS011;4792;50.088;8.122;2022-12-11T14:51:46;70.63;;;33.53;;
9508;SDS011;4792;50.088;8.122;2022-12-11T14:54:25;74.63;;;33.83;;
9508;SDS011;4792;50.088;8.122;2022-12-11T14:56:56;67.20;;;33.27;;
9508;SDS011;4792;50.088;8.122;2022-12-11T14:59:26;63.53;;;32.73;;
9508;SDS011;4792;50.088;8.122;2022-12-11T15:01:58;75.27;;;34.13;;
9508;SDS011;4792;50.088;8.122;2022-12-11T15:04:29;68.80;;;31.93;;
9508;SDS011;4792;50.088;8.122;2022-12-11T15:06:59;65.70;;;31.67;;
9508;SDS011;4792;50.088;8.122;2022-12-11T15:09:28;64.90;;;31.60;;
9508;SDS011;4792;50.088;8.122;2022-12-11T15:12:07;67.43;;;32.33;;
9508;SDS011;4792;50.088;8.122;2022-12-11T15:14:40;62.77;;;30.30;;